sensor_id;sensor_type;location;lat;lon;timestamp;temperature;humidity
61400;DHT22;47269;48.182;-1.946;2023-07-13T06:01:46;16.50;99.90
61400;DHT22;47269;48.182;-1.946;2023-07-13T06:04:12;16.50;99.90
61400;DHT22;47269;48.182;-1.946;2023-07-13T06:06:37;16.40;99.90
61400;DHT22;47269;48.182;-1.946;2023-07-13T06:09:03;16.40;99.90
61400;DHT22;47269;48.182;-1.946;2023-07-13T06:11:29;16.50;99.90
61400;DHT22;47269;48.182;-1.946;2023-07-13T06:13:55;16.60;99.90
61400;DHT22;47269;48.182;-1.946;2023-07-13T06:16:22;16.70;99.90
61400;DHT22;47269;48.182;-1.946;2023-07-13T06:18:47;16.60;99.90
61400;DHT22;47269;48.182;-1.946;2023-07-13T06:21:16;16.70;99.90
61400;DHT22;47269;48.182;-1.946;2023-07-13T06:23:42;16.70;99.90
61400;DHT22;47269;48.182;-1.946;2023-07-13T06:26:08;16.80;99.90
61400;DHT22;47269;48.182;-1.946;2023-07-13T06:28:34;16.80;99.90
61400;DHT22;47269;48.182;-1.946;2023-07-13T06:31:00;16.80;99.90
61400;DHT22;47269;48.182;-1.946;2023-07-13T06:33:27;16.70;99.90
61400;DHT22;47269;48.182;-1.946;2023-07-13T06:35:53;16.80;99.90
61400;DHT22;47269;48.182;-1.946;2023-07-13T06:38:20;16.90;99.90
61400;DHT22;47269;48.182;-1.946;2023-07-13T06:40:46;16.90;99.90
61400;DHT22;47269;48.182;-1.946;2023-07-13T06:43:12;16.90;99.90
61400;DHT22;47269;48.182;-1.946;2023-07-13T06:45:43;17.00;99.90
61400;DHT22;47269;48.182;-1.946;2023-07-13T06:48:11;17.00;99.90
61400;DHT22;47269;48.182;-1.946;2023-07-13T06:50:37;17.10;99.90
61400;DHT22;47269;48.182;-1.946;2023-07-13T06:53:03;17.10;99.90
61400;DHT22;47269;48.182;-1.946;2023-07-13T06:55:28;17.00;99.90
61400;DHT22;47269;48.182;-1.946;2023-07-13T06:57:54;17.10;99.90
61400;DHT22;47269;48.182;-1.946;2023-07-13T07:00:20;17.30;99.90
61400;DHT22;47269;48.182;-1.946;2023-07-13T07:02:45;17.20;99.90
61400;DHT22;47269;48.182;-1.946;2023-07-13T07:05:11;17.30;99.90
61400;DHT22;47269;48.182;-1.946;2023-07-13T07:07:37;17.30;99.90
61400;DHT22;47269;48.182;-1.946;2023-07-13T07:10:03;17.40;99.90
61400;DHT22;47269;48.182;-1.946;2023-07-13T07:12:29;17.50;99.90
61400;DHT22;47269;48.182;-1.946;2023-07-13T07:14:55;17.40;99.90
61400;DHT22;47269;48.182;-1.946;2023-07-13T07:17:21;17.30;99.90
61400;DHT22;47269;48.182;-1.946;2023-07-13T07:19:46;17.60;99.90
61400;DHT22;47269;48.182;-1.946;2023-07-13T07:22:12;17.70;99.90
61400;DHT22;47269;48.182;-1.946;2023-07-13T07:24:38;17.60;99.90
61400;DHT22;47269;48.182;-1.946;2023-07-13T07:27:04;17.70;99.90
61400;DHT22;47269;48.182;-1.946;2023-07-13T07:29:30;17.60;99.90
61400;DHT22;47269;48.182;-1.946;2023-07-13T07:31:55;17.90;99.90
61400;DHT22;47269;48.182;-1.946;2023-07-13T07:34:21;18.00;99.90
61400;DHT22;47269;48.182;-1.946;2023-07-13T07:36:47;18.10;99.90
61400;DHT22;47269;48.182;-1.946;2023-07-13T07:39:12;18.20;99.90
61400;DHT22;47269;48.182;-1.946;2023-07-13T07:41:38;18.50;99.90
61400;DHT22;47269;48.182;-1.946;2023-07-13T07:44:04;18.40;99.90
61400;DHT22;47269;48.182;-1.946;2023-07-13T07:46:30;18.30;99.90
61400;DHT22;47269;48.182;-1.946;2023-07-13T07:48:56;18.40;99.90
61400;DHT22;47269;48.182;-1.946;2023-07-13T07:51:22;18.50;99.90
61400;DHT22;47269;48.182;-1.946;2023-07-13T07:53:48;18.40;99.90
61400;DHT22;47269;48.182;-1.946;2023-07-13T07:56:16;18.80;99.90
61400;DHT22;47269;48.182;-1.946;2023-07-13T07:58:44;18.70;99.90
61400;DHT22;47269;48.182;-1.946;2023-07-13T08:01:10;18.70;99.90
61400;DHT22;47269;48.182;-1.946;2023-07-13T08:03:36;18.90;99.90
61400;DHT22;47269;48.182;-1.946;2023-07-13T08:06:01;19.20;99.90
61400;DHT22;47269;48.182;-1.946;2023-07-13T08:08:27;19.70;99.90
61400;DHT22;47269;48.182;-1.946;2023-07-13T08:10:53;20.10;99.90
61400;DHT22;47269;48.182;-1.946;2023-07-13T08:13:19;20.30;99.90
61400;DHT22;47269;48.182;-1.946;2023-07-13T08:15:45;20.30;99.90
61400;DHT22;47269;48.182;-1.946;2023-07-13T08:18:11;20.20;99.90
61400;DHT22;47269;48.182;-1.946;2023-07-13T08:20:40;20.00;99.90
61400;DHT22;47269;48.182;-1.946;2023-07-13T08:23:10;20.10;99.90
61400;DHT22;47269;48.182;-1.946;2023-07-13T08:25:35;20.20;99.90
61400;DHT22;47269;48.182;-1.946;2023-07-13T08:28:03;20.20;99.90
61400;DHT22;47269;48.182;-1.946;2023-07-13T08:30:29;20.50;99.90
61400;DHT22;47269;48.182;-1.946;2023-07-13T08:32:54;20.80;99.90
61400;DHT22;47269;48.182;-1.946;2023-07-13T08:35:20;20.50;99.90
61400;DHT22;47269;48.182;-1.946;2023-07-13T08:37:46;20.80;99.90
61400;DHT22;47269;48.182;-1.946;2023-07-13T08:40:12;21.10;99.90
61400;DHT22;47269;48.182;-1.946;2023-07-13T08:42:54;21.20;99.90
61400;DHT22;47269;48.182;-1.946;2023-07-13T08:47:53;21.40;99.90
61400;DHT22;47269;48.182;-1.946;2023-07-13T08:50:25;21.70;99.90
61400;DHT22;47269;48.182;-1.946;2023-07-13T08:52:55;21.40;99.90
61400;DHT22;47269;48.182;-1.946;2023-07-13T08:55:26;21.50;99.90
61400;DHT22;47269;48.182;-1.946;2023-07-13T08:58:14;22.00;99.90
61400;DHT22;47269;48.182;-1.946;2023-07-13T09:03:20;23.00;99.90
61400;DHT22;47269;48.182;-1.946;2023-07-13T09:05:54;22.50;99.90
61400;DHT22;47269;48.182;-1.946;2023-07-13T09:09:23;23.40;99.90
61400;DHT22;47269;48.182;-1.946;2023-07-13T09:11:56;22.70;99.90
61400;DHT22;47269;48.182;-1.946;2023-07-13T09:14:40;21.70;99.90
61400;DHT22;47269;48.182;-1.946;2023-07-13T09:17:22;21.40;99.90
61400;DHT22;47269;48.182;-1.946;2023-07-13T09:22:44;22.40;99.90
61400;DHT22;47269;48.182;-1.946;2023-07-13T09:27:47;22.60;99.90
61400;DHT22;47269;48.182;-1.946;2023-07-13T09:32:47;22.80;99.90
61400;DHT22;47269;48.182;-1.946;2023-07-13T09:35:17;23.00;99.90
61400;DHT22;47269;48.182;-1.946;2023-07-13T09:38:13;22.90;99.90
61400;DHT22;47269;48.182;-1.946;2023-07-13T09:41:15;23.40;99.90
61400;DHT22;47269;48.182;-1.946;2023-07-13T09:46:34;23.10;99.90
61400;DHT22;47269;48.182;-1.946;2023-07-13T09:49:00;23.30;99.90
61400;DHT22;47269;48.182;-1.946;2023-07-13T09:51:25;23.00;99.90
61400;DHT22;47269;48.182;-1.946;2023-07-13T09:53:51;23.10;99.90
61400;DHT22;47269;48.182;-1.946;2023-07-13T09:56:27;23.30;99.90
61400;DHT22;47269;48.182;-1.946;2023-07-13T09:58:55;23.60;99.90
61400;DHT22;47269;48.182;-1.946;2023-07-13T10:01:39;24.10;99.90
61400;DHT22;47269;48.182;-1.946;2023-07-13T10:04:12;23.60;99.90
61400;DHT22;47269;48.182;-1.946;2023-07-13T10:06:39;23.70;99.90
61400;DHT22;47269;48.182;-1.946;2023-07-13T10:09:08;23.80;99.90
61400;DHT22;47269;48.182;-1.946;2023-07-13T10:11:36;23.50;99.90
61400;DHT22;47269;48.182;-1.946;2023-07-13T10:14:18;23.80;99.90
61400;DHT22;47269;48.182;-1.946;2023-07-13T10:16:46;24.10;99.90
61400;DHT22;47269;48.182;-1.946;2023-07-13T10:19:17;24.00;99.90
61400;DHT22;47269;48.182;-1.946;2023-07-13T10:21:58;24.20;99.90
61400;DHT22;47269;48.182;-1.946;2023-07-13T10:24:33;23.40;99.90
61400;DHT22;47269;48.182;-1.946;2023-07-13T10:32:11;23.60;99.90
61400;DHT22;47269;48.182;-1.946;2023-07-13T10:34:42;23.70;99.90
61400;DHT22;47269;48.182;-1.946;2023-07-13T10:37:18;23.50;99.90
61400;DHT22;47269;48.182;-1.946;2023-07-13T10:39:46;23.90;99.90
61400;DHT22;47269;48.182;-1.946;2023-07-13T10:42:16;24.00;99.90
61400;DHT22;47269;48.182;-1.946;2023-07-13T10:44:44;24.20;99.90
61400;DHT22;47269;48.182;-1.946;2023-07-13T10:47:15;24.00;99.90
61400;DHT22;47269;48.182;-1.946;2023-07-13T10:49:44;23.50;99.90
61400;DHT22;47269;48.182;-1.946;2023-07-13T10:52:42;23.40;99.90
61400;DHT22;47269;48.182;-1.946;2023-07-13T10:55:54;23.20;99.90
61400;DHT22;47269;48.182;-1.946;2023-07-13T10:58:43;22.70;99.90
61400;DHT22;47269;48.182;-1.946;2023-07-13T11:01:15;23.00;99.90
61400;DHT22;47269;48.182;-1.946;2023-07-13T11:03:49;23.40;99.90
61400;DHT22;47269;48.182;-1.946;2023-07-13T11:09:07;24.20;99.90
61400;DHT22;47269;48.182;-1.946;2023-07-13T11:11:45;23.70;99.90
61400;DHT22;47269;48.182;-1.946;2023-07-13T11:14:39;23.90;99.90
61400;DHT22;47269;48.182;-1.946;2023-07-13T11:20:19;23.50;99.90
61400;DHT22;47269;48.182;-1.946;2023-07-13T11:23:16;23.50;99.90
61400;DHT22;47269;48.182;-1.946;2023-07-13T11:25:46;23.50;99.90
61400;DHT22;47269;48.182;-1.946;2023-07-13T11:28:17;23.10;99.90
61400;DHT22;47269;48.182;-1.946;2023-07-13T11:34:13;23.50;99.90
61400;DHT22;47269;48.182;-1.946;2023-07-13T11:36:43;23.20;99.90
61400;DHT22;47269;48.182;-1.946;2023-07-13T11:39:18;23.30;99.90
61400;DHT22;47269;48.182;-1.946;2023-07-13T11:41:57;23.50;99.90
61400;DHT22;47269;48.182;-1.946;2023-07-13T11:44:25;23.30;99.90
61400;DHT22;47269;48.182;-1.946;2023-07-13T11:46:56;22.90;99.90
61400;DHT22;47269;48.182;-1.946;2023-07-13T11:49:24;23.00;99.90
61400;DHT22;47269;48.182;-1.946;2023-07-13T11:51:52;22.70;99.90
61400;DHT22;47269;48.182;-1.946;2023-07-13T11:54:30;22.80;99.90
61400;DHT22;47269;48.182;-1.946;2023-07-13T11:56:59;22.90;99.90
61400;DHT22;47269;48.182;-1.946;2023-07-13T11:59:29;23.10;99.90
61400;DHT22;47269;48.182;-1.946;2023-07-13T12:01:55;22.80;99.90
61400;DHT22;47269;48.182;-1.946;2023-07-13T12:04:27;22.70;99.90
61400;DHT22;47269;48.182;-1.946;2023-07-13T12:07:16;22.60;99.90
61400;DHT22;47269;48.182;-1.946;2023-07-13T12:09:42;22.30;99.90
61400;DHT22;47269;48.182;-1.946;2023-07-13T12:12:13;22.10;99.90
61400;DHT22;47269;48.182;-1.946;2023-07-13T12:14:39;22.00;99.90
61400;DHT22;47269;48.182;-1.946;2023-07-13T12:17:16;21.90;99.90
61400;DHT22;47269;48.182;-1.946;2023-07-13T12:19:43;22.10;99.90
61400;DHT22;47269;48.182;-1.946;2023-07-13T12:22:12;22.30;99.90
61400;DHT22;47269;48.182;-1.946;2023-07-13T12:24:40;22.60;99.90
61400;DHT22;47269;48.182;-1.946;2023-07-13T12:27:24;22.70;99.90
61400;DHT22;47269;48.182;-1.946;2023-07-13T12:29:59;23.20;99.90
61400;DHT22;47269;48.182;-1.946;2023-07-13T12:32:26;23.60;99.90
61400;DHT22;47269;48.182;-1.946;2023-07-13T12:35:01;23.60;99.90
61400;DHT22;47269;48.182;-1.946;2023-07-13T12:37:34;24.40;99.90
61400;DHT22;47269;48.182;-1.946;2023-07-13T12:40:01;24.40;99.90
61400;DHT22;47269;48.182;-1.946;2023-07-13T12:42:32;24.50;99.90
61400;DHT22;47269;48.182;-1.946;2023-07-13T12:44:59;24.60;99.90
61400;DHT22;47269;48.182;-1.946;2023-07-13T12:47:26;23.90;99.90
61400;DHT22;47269;48.182;-1.946;2023-07-13T12:49:57;24.40;99.90
61400;DHT22;47269;48.182;-1.946;2023-07-13T12:52:34;23.90;99.90
61400;DHT22;47269;48.182;-1.946;2023-07-13T12:55:11;23.90;99.90
61400;DHT22;47269;48.182;-1.946;2023-07-13T12:57:59;23.90;99.90
61400;DHT22;47269;48.182;-1.946;2023-07-13T13:00:33;23.70;99.90
61400;DHT22;47269;48.182;-1.946;2023-07-13T13:03:22;23.30;99.90
61400;DHT22;47269;48.182;-1.946;2023-07-13T13:05:48;23.30;99.90
61400;DHT22;47269;48.182;-1.946;2023-07-13T13:08:14;23.40;99.90
61400;DHT22;47269;48.182;-1.946;2023-07-13T13:10:40;23.50;99.90
61400;DHT22;47269;48.182;-1.946;2023-07-13T13:13:06;23.00;99.90
61400;DHT22;47269;48.182;-1.946;2023-07-13T13:15:34;23.40;99.90
61400;DHT22;47269;48.182;-1.946;2023-07-13T13:18:01;23.70;99.90
61400;DHT22;47269;48.182;-1.946;2023-07-13T13:20:27;24.20;99.90
61400;DHT22;47269;48.182;-1.946;2023-07-13T13:22:52;24.30;99.90
61400;DHT22;47269;48.182;-1.946;2023-07-13T13:25:19;24.10;99.90
61400;DHT22;47269;48.182;-1.946;2023-07-13T13:27:45;23.80;99.90
61400;DHT22;47269;48.182;-1.946;2023-07-13T13:30:12;23.50;99.90
61400;DHT22;47269;48.182;-1.946;2023-07-13T13:32:44;23.90;99.90
61400;DHT22;47269;48.182;-1.946;2023-07-13T13:35:19;24.20;99.90
61400;DHT22;47269;48.182;-1.946;2023-07-13T13:37:46;24.50;99.90
61400;DHT22;47269;48.182;-1.946;2023-07-13T13:40:18;24.10;99.90
61400;DHT22;47269;48.182;-1.946;2023-07-13T13:42:44;23.80;99.90
61400;DHT22;47269;48.182;-1.946;2023-07-13T13:45:10;23.70;99.90
61400;DHT22;47269;48.182;-1.946;2023-07-13T13:47:38;24.00;99.90
61400;DHT22;47269;48.182;-1.946;2023-07-13T13:50:20;23.60;99.90
61400;DHT22;47269;48.182;-1.946;2023-07-13T13:52:46;23.40;99.90
61400;DHT22;47269;48.182;-1.946;2023-07-13T13:55:16;22.90;99.90
61400;DHT22;47269;48.182;-1.946;2023-07-13T13:57:45;22.80;99.90
61400;DHT22;47269;48.182;-1.946;2023-07-13T14:00:11;22.50;99.90
61400;DHT22;47269;48.182;-1.946;2023-07-13T14:02:57;22.90;99.90
61400;DHT22;47269;48.182;-1.946;2023-07-13T14:05:25;23.20;99.90
61400;DHT22;47269;48.182;-1.946;2023-07-13T14:07:53;23.70;99.90
61400;DHT22;47269;48.182;-1.946;2023-07-13T14:10:19;24.50;99.90
61400;DHT22;47269;48.182;-1.946;2023-07-13T14:12:47;24.50;99.90
61400;DHT22;47269;48.182;-1.946;2023-07-13T14:15:18;24.50;99.90
61400;DHT22;47269;48.182;-1.946;2023-07-13T14:17:45;24.50;99.90
61400;DHT22;47269;48.182;-1.946;2023-07-13T14:20:12;24.30;99.90
61400;DHT22;47269;48.182;-1.946;2023-07-13T14:22:38;24.20;99.90
61400;DHT22;47269;48.182;-1.946;2023-07-13T14:25:04;24.10;99.90
61400;DHT22;47269;48.182;-1.946;2023-07-13T14:27:29;24.10;99.90
61400;DHT22;47269;48.182;-1.946;2023-07-13T14:29:55;24.10;99.90
61400;DHT22;47269;48.182;-1.946;2023-07-13T14:32:21;24.10;99.90
61400;DHT22;47269;48.182;-1.946;2023-07-13T14:34:46;24.10;99.90
61400;DHT22;47269;48.182;-1.946;2023-07-13T14:37:14;24.00;99.90
61400;DHT22;47269;48.182;-1.946;2023-07-13T14:39:40;23.60;99.90
61400;DHT22;47269;48.182;-1.946;2023-07-13T14:42:09;23.50;99.90
61400;DHT22;47269;48.182;-1.946;2023-07-13T14:44:35;23.80;99.90
61400;DHT22;47269;48.182;-1.946;2023-07-13T14:47:03;23.60;99.90
61400;DHT22;47269;48.182;-1.946;2023-07-13T14:49:32;24.40;99.90
61400;DHT22;47269;48.182;-1.946;2023-07-13T14:52:02;24.80;99.90
61400;DHT22;47269;48.182;-1.946;2023-07-13T14:54:29;24.30;99.90
61400;DHT22;47269;48.182;-1.946;2023-07-13T14:56:55;24.30;99.90
61400;DHT22;47269;48.182;-1.946;2023-07-13T14:59:20;23.90;99.90
61400;DHT22;47269;48.182;-1.946;2023-07-13T15:01:48;24.20;99.90
61400;DHT22;47269;48.182;-1.946;2023-07-13T15:04:17;24.10;99.90
61400;DHT22;47269;48.182;-1.946;2023-07-13T15:06:57;24.10;99.90
61400;DHT22;47269;48.182;-1.946;2023-07-13T15:09:24;24.20;99.90
61400;DHT22;47269;48.182;-1.946;2023-07-13T15:11:52;24.10;99.90
61400;DHT22;47269;48.182;-1.946;2023-07-13T15:14:18;24.00;99.90
61400;DHT22;47269;48.182;-1.946;2023-07-13T15:16:46;23.70;99.90
61400;DHT22;47269;48.182;-1.946;2023-07-13T15:19:12;23.90;99.90
61400;DHT22;47269;48.182;-1.946;2023-07-13T15:21:38;24.30;99.90
61400;DHT22;47269;48.182;-1.946;2023-07-13T15:24:04;24.50;99.90
61400;DHT22;47269;48.182;-1.946;2023-07-13T15:26:33;24.70;99.90
61400;DHT22;47269;48.182;-1.946;2023-07-13T15:28:59;24.70;99.90
61400;DHT22;47269;48.182;-1.946;2023-07-13T15:31:26;24.50;99.90
61400;DHT22;47269;48.182;-1.946;2023-07-13T15:33:55;24.40;99.90
61400;DHT22;47269;48.182;-1.946;2023-07-13T15:36:22;24.50;99.90
61400;DHT22;47269;48.182;-1.946;2023-07-13T15:38:48;23.90;99.90
61400;DHT22;47269;48.182;-1.946;2023-07-13T15:41:23;24.00;99.90
61400;DHT22;47269;48.182;-1.946;2023-07-13T15:43:50;24.10;99.90
61400;DHT22;47269;48.182;-1.946;2023-07-13T15:46:18;24.30;99.90
61400;DHT22;47269;48.182;-1.946;2023-07-13T15:48:45;24.40;99.90
61400;DHT22;47269;48.182;-1.946;2023-07-13T15:51:23;24.50;99.90
61400;DHT22;47269;48.182;-1.946;2023-07-13T15:53:49;24.50;99.90
61400;DHT22;47269;48.182;-1.946;2023-07-13T15:56:23;24.00;99.90
61400;DHT22;47269;48.182;-1.946;2023-07-13T15:58:50;23.80;99.90
61400;DHT22;47269;48.182;-1.946;2023-07-13T16:01:17;23.90;99.90
61400;DHT22;47269;48.182;-1.946;2023-07-13T16:03:47;24.40;99.90
61400;DHT22;47269;48.182;-1.946;2023-07-13T16:06:24;24.30;99.90
61400;DHT22;47269;48.182;-1.946;2023-07-13T16:08:51;24.10;99.90
61400;DHT22;47269;48.182;-1.946;2023-07-13T16:13:50;24.40;99.90
61400;DHT22;47269;48.182;-1.946;2023-07-13T16:16:28;24.20;99.90
61400;DHT22;47269;48.182;-1.946;2023-07-13T16:18:55;24.00;99.90
61400;DHT22;47269;48.182;-1.946;2023-07-13T16:21:26;24.20;99.90
61400;DHT22;47269;48.182;-1.946;2023-07-13T16:23:53;24.30;99.90
61400;DHT22;47269;48.182;-1.946;2023-07-13T16:26:36;24.30;99.90
61400;DHT22;47269;48.182;-1.946;2023-07-13T16:29:16;24.20;99.90
61400;DHT22;47269;48.182;-1.946;2023-07-13T16:31:54;24.10;99.90
61400;DHT22;47269;48.182;-1.946;2023-07-13T16:34:20;23.90;99.90
61400;DHT22;47269;48.182;-1.946;2023-07-13T16:36:46;24.00;99.90
61400;DHT22;47269;48.182;-1.946;2023-07-13T16:39:12;24.00;99.90
61400;DHT22;47269;48.182;-1.946;2023-07-13T16:41:43;23.90;99.90
61400;DHT22;47269;48.182;-1.946;2023-07-13T16:44:17;24.00;99.90
61400;DHT22;47269;48.182;-1.946;2023-07-13T16:46:50;23.80;99.90
61400;DHT22;47269;48.182;-1.946;2023-07-13T16:49:26;23.70;99.90
61400;DHT22;47269;48.182;-1.946;2023-07-13T16:51:54;23.50;99.90
61400;DHT22;47269;48.182;-1.946;2023-07-13T16:54:25;23.40;99.90
61400;DHT22;47269;48.182;-1.946;2023-07-13T16:56:50;23.40;99.90
61400;DHT22;47269;48.182;-1.946;2023-07-13T16:59:20;23.30;99.90
61400;DHT22;47269;48.182;-1.946;2023-07-13T17:01:47;23.40;99.90
61400;DHT22;47269;48.182;-1.946;2023-07-13T17:04:14;23.20;99.90
61400;DHT22;47269;48.182;-1.946;2023-07-13T17:06:44;23.40;99.90
61400;DHT22;47269;48.182;-1.946;2023-07-13T17:09:12;23.60;99.90
61400;DHT22;47269;48.182;-1.946;2023-07-13T17:11:40;23.50;99.90
61400;DHT22;47269;48.182;-1.946;2023-07-13T17:14:20;23.50;99.90
61400;DHT22;47269;48.182;-1.946;2023-07-13T17:16:49;23.60;99.90
61400;DHT22;47269;48.182;-1.946;2023-07-13T17:19:16;23.80;99.90
61400;DHT22;47269;48.182;-1.946;2023-07-13T17:21:44;23.70;99.90
61400;DHT22;47269;48.182;-1.946;2023-07-13T17:24:21;23.60;99.90
61400;DHT22;47269;48.182;-1.946;2023-07-13T17:26:50;23.30;99.90
61400;DHT22;47269;48.182;-1.946;2023-07-13T17:29:24;23.20;99.90
61400;DHT22;47269;48.182;-1.946;2023-07-13T17:31:50;23.30;99.90
61400;DHT22;47269;48.182;-1.946;2023-07-13T17:34:17;23.20;99.90
61400;DHT22;47269;48.182;-1.946;2023-07-13T17:36:43;23.10;99.90
61400;DHT22;47269;48.182;-1.946;2023-07-13T17:39:14;23.00;99.90
61400;DHT22;47269;48.182;-1.946;2023-07-13T17:41:41;23.10;99.90
61400;DHT22;47269;48.182;-1.946;2023-07-13T17:44:14;23.20;99.90
61400;DHT22;47269;48.182;-1.946;2023-07-13T17:46:43;23.00;99.90
61400;DHT22;47269;48.182;-1.946;2023-07-13T17:49:29;22.90;99.90
61400;DHT22;47269;48.182;-1.946;2023-07-13T17:51:57;23.00;99.90
61400;DHT22;47269;48.182;-1.946;2023-07-13T17:54:25;22.80;99.90
61400;DHT22;47269;48.182;-1.946;2023-07-13T17:56:52;22.70;99.90
61400;DHT22;47269;48.182;-1.946;2023-07-13T17:59:17;22.30;99.90
61400;DHT22;47269;48.182;-1.946;2023-07-13T18:01:44;22.40;99.90
61400;DHT22;47269;48.182;-1.946;2023-07-13T18:04:15;22.20;99.90
61400;DHT22;47269;48.182;-1.946;2023-07-13T18:06:44;22.00;99.90
61400;DHT22;47269;48.182;-1.946;2023-07-13T18:09:20;21.80;99.90
61400;DHT22;47269;48.182;-1.946;2023-07-13T18:11:47;21.80;99.90
61400;DHT22;47269;48.182;-1.946;2023-07-13T18:14:13;21.90;99.90
61400;DHT22;47269;48.182;-1.946;2023-07-13T18:16:40;22.00;99.90
61400;DHT22;47269;48.182;-1.946;2023-07-13T18:19:23;21.90;99.90
61400;DHT22;47269;48.182;-1.946;2023-07-13T18:21:50;21.80;99.90
61400;DHT22;47269;48.182;-1.946;2023-07-13T18:24:17;21.80;99.90
61400;DHT22;47269;48.182;-1.946;2023-07-13T18:26:42;21.50;99.90
61400;DHT22;47269;48.182;-1.946;2023-07-13T18:29:08;21.40;99.90
61400;DHT22;47269;48.182;-1.946;2023-07-13T18:31:35;21.40;99.90
61400;DHT22;47269;48.182;-1.946;2023-07-13T18:34:04;21.40;99.90
61400;DHT22;47269;48.182;-1.946;2023-07-13T18:36:30;21.20;99.90
61400;DHT22;47269;48.182;-1.946;2023-07-13T18:38:57;21.10;99.90
61400;DHT22;47269;48.182;-1.946;2023-07-13T18:41:23;21.10;99.90
61400;DHT22;47269;48.182;-1.946;2023-07-13T18:43:49;21.00;99.90
61400;DHT22;47269;48.182;-1.946;2023-07-13T18:46:23;21.10;99.90
61400;DHT22;47269;48.182;-1.946;2023-07-13T18:48:51;21.00;99.90
61400;DHT22;47269;48.182;-1.946;2023-07-13T18:51:17;21.00;99.90
61400;DHT22;47269;48.182;-1.946;2023-07-13T18:53:43;21.10;99.90
61400;DHT22;47269;48.182;-1.946;2023-07-13T18:56:09;21.10;99.90
61400;DHT22;47269;48.182;-1.946;2023-07-13T18:58:38;21.10;99.90
61400;DHT22;47269;48.182;-1.946;2023-07-13T19:01:20;20.90;99.90
61400;DHT22;47269;48.182;-1.946;2023-07-13T19:03:48;21.00;99.90
61400;DHT22;47269;48.182;-1.946;2023-07-13T19:06:17;20.90;99.90
61400;DHT22;47269;48.182;-1.946;2023-07-13T19:08:46;20.90;99.90
61400;DHT22;47269;48.182;-1.946;2023-07-13T19:11:15;20.80;99.90
61400;DHT22;47269;48.182;-1.946;2023-07-13T19:13:41;20.80;99.90
61400;DHT22;47269;48.182;-1.946;2023-07-13T19:16:12;20.90;99.90
61400;DHT22;47269;48.182;-1.946;2023-07-13T19:18:40;20.90;99.90
61400;DHT22;47269;48.182;-1.946;2023-07-13T19:21:13;20.80;99.90
61400;DHT22;47269;48.182;-1.946;2023-07-13T19:23:44;20.80;99.90
61400;DHT22;47269;48.182;-1.946;2023-07-13T19:26:26;20.70;99.90
61400;DHT22;47269;48.182;-1.946;2023-07-13T19:28:55;20.60;99.90
61400;DHT22;47269;48.182;-1.946;2023-07-13T19:31:27;20.70;99.90
61400;DHT22;47269;48.182;-1.946;2023-07-13T19:33:56;20.70;99.90
61400;DHT22;47269;48.182;-1.946;2023-07-13T19:36:25;20.70;99.90
61400;DHT22;47269;48.182;-1.946;2023-07-13T19:38:51;20.60;99.90
61400;DHT22;47269;48.182;-1.946;2023-07-13T19:41:20;20.70;99.90
61400;DHT22;47269;48.182;-1.946;2023-07-13T19:43:47;20.60;99.90
61400;DHT22;47269;48.182;-1.946;2023-07-13T19:46:33;20.60;99.90
61400;DHT22;47269;48.182;-1.946;2023-07-13T19:49:00;20.50;99.90
61400;DHT22;47269;48.182;-1.946;2023-07-13T19:51:30;20.60;99.90
61400;DHT22;47269;48.182;-1.946;2023-07-13T19:54:11;20.50;99.90
61400;DHT22;47269;48.182;-1.946;2023-07-13T19:56:38;20.30;99.90
61400;DHT22;47269;48.182;-1.946;2023-07-13T19:59:28;20.30;99.90
61400;DHT22;47269;48.182;-1.946;2023-07-13T20:01:55;20.30;99.90
61400;DHT22;47269;48.182;-1.946;2023-07-13T20:04:21;20.30;99.90
61400;DHT22;47269;48.182;-1.946;2023-07-13T20:06:47;20.30;99.90
61400;DHT22;47269;48.182;-1.946;2023-07-13T20:09:31;20.10;99.90
61400;DHT22;47269;48.182;-1.946;2023-07-13T20:12:00;20.10;99.90
61400;DHT22;47269;48.182;-1.946;2023-07-13T20:14:27;20.00;99.90
61400;DHT22;47269;48.182;-1.946;2023-07-13T20:17:02;20.00;99.90
61400;DHT22;47269;48.182;-1.946;2023-07-13T20:19:34;20.00;99.90
61400;DHT22;47269;48.182;-1.946;2023-07-13T20:22:03;19.80;99.90
61400;DHT22;47269;48.182;-1.946;2023-07-13T20:24:29;19.70;99.90
61400;DHT22;47269;48.182;-1.946;2023-07-13T20:26:54;19.70;99.90
61400;DHT22;47269;48.182;-1.946;2023-07-13T20:29:20;19.70;99.90
61400;DHT22;47269;48.182;-1.946;2023-07-13T20:31:47;19.70;99.90
61400;DHT22;47269;48.182;-1.946;2023-07-13T20:34:18;19.50;99.90
61400;DHT22;47269;48.182;-1.946;2023-07-13T20:36:45;19.60;99.90
61400;DHT22;47269;48.182;-1.946;2023-07-13T20:39:10;19.50;99.90
61400;DHT22;47269;48.182;-1.946;2023-07-13T20:41:36;19.50;99.90
61400;DHT22;47269;48.182;-1.946;2023-07-13T20:44:04;19.60;99.90
61400;DHT22;47269;48.182;-1.946;2023-07-13T20:46:30;19.50;99.90
61400;DHT22;47269;48.182;-1.946;2023-07-13T20:48:56;19.50;99.90
61400;DHT22;47269;48.182;-1.946;2023-07-13T20:51:22;19.30;99.90
61400;DHT22;47269;48.182;-1.946;2023-07-13T20:53:49;19.30;99.90
61400;DHT22;47269;48.182;-1.946;2023-07-13T20:56:19;19.30;99.90
61400;DHT22;47269;48.182;-1.946;2023-07-13T20:58:46;19.30;99.90
61400;DHT22;47269;48.182;-1.946;2023-07-13T21:01:34;19.30;99.90
61400;DHT22;47269;48.182;-1.946;2023-07-13T21:04:05;19.30;99.90
61400;DHT22;47269;48.182;-1.946;2023-07-13T21:06:31;19.20;99.90
61400;DHT22;47269;48.182;-1.946;2023-07-13T21:08:59;19.20;99.90
61400;DHT22;47269;48.182;-1.946;2023-07-13T21:11:25;19.10;99.90
61400;DHT22;47269;48.182;-1.946;2023-07-13T21:13:51;19.00;99.90
61400;DHT22;47269;48.182;-1.946;2023-07-13T21:16:25;19.20;99.90
61400;DHT22;47269;48.182;-1.946;2023-07-13T21:18:52;19.10;99.90
61400;DHT22;47269;48.182;-1.946;2023-07-13T21:21:20;19.00;99.90
61400;DHT22;47269;48.182;-1.946;2023-07-13T21:23:47;18.90;99.90
61400;DHT22;47269;48.182;-1.946;2023-07-13T21:26:15;19.00;99.90
61400;DHT22;47269;48.182;-1.946;2023-07-13T21:28:45;19.10;99.90
61400;DHT22;47269;48.182;-1.946;2023-07-13T21:33:47;18.90;99.90
61400;DHT22;47269;48.182;-1.946;2023-07-13T21:36:13;19.00;99.90
61400;DHT22;47269;48.182;-1.946;2023-07-13T21:38:41;18.90;99.90
61400;DHT22;47269;48.182;-1.946;2023-07-13T21:41:27;18.80;99.90
61400;DHT22;47269;48.182;-1.946;2023-07-13T21:43:53;18.80;99.90
61400;DHT22;47269;48.182;-1.946;2023-07-13T21:46:19;18.90;99.90
61400;DHT22;47269;48.182;-1.946;2023-07-13T21:48:46;18.80;99.90
61400;DHT22;47269;48.182;-1.946;2023-07-13T21:51:18;18.90;99.90
61400;DHT22;47269;48.182;-1.946;2023-07-13T21:53:45;18.90;99.90
61400;DHT22;47269;48.182;-1.946;2023-07-13T21:56:12;18.80;99.90
61400;DHT22;47269;48.182;-1.946;2023-07-13T21:58:38;18.80;99.90
61400;DHT22;47269;48.182;-1.946;2023-07-13T22:01:13;18.70;99.90
61400;DHT22;47269;48.182;-1.946;2023-07-13T22:03:39;18.70;99.90
61400;DHT22;47269;48.182;-1.946;2023-07-13T22:06:06;18.70;99.90
61400;DHT22;47269;48.182;-1.946;2023-07-13T22:08:37;18.70;99.90